Anne Sibum — C4YC2 — position and weather

sailwx.info

Track history (hours):
 
Tides and Currents Weather Stations Pressure Air Temp Water Temp Dewpoint Dewpoint Depression Visibility Wind Speed Wind Dir Waves Ship Positions

Anne Sibum

Last reported at 2017-Apr-26 18:11 UTC. Time now 2017-Apr-26 21:28 UTC.
Position N 50°11' W 002°22'.

Length 151 m; draft 7.1 m.

Type: Ship (hazmat cat A). MMSI: 209322000.

Date/timePositionNaut miles runAvg speedWind from/ knotsBaromVisibWave heightAir tempDewpointWater temp
2017-Apr-26 18:11N 50°11' W 002°22'518.8
2017-Apr-26 17:56N 50°10' W 002°29'818.4
2017-Apr-26 17:30N 50°09' W 002°42'918.0
2017-Apr-26 17:00N 50°08' W 002°56'917.9
2017-Apr-26 16:30N 50°06' W 003°09'917.8
2017-Apr-26 16:01N 50°05' W 003°23'917.6
2017-Apr-26 15:31N 50°04' W 003°37'917.1
2017-Apr-26 15:01N 50°03' W 003°50'816.8
2017-Apr-26 14:31N 50°02' W 004°03'1916.4
2017-Apr-26 13:19N 49°59' W 004°33'515.9
2017-Apr-26 12:59N 49°58' W 004°41'815.7
2017-Apr-26 12:30N 49°57' W 004°52'715.0
2017-Apr-26 12:00N 49°56' W 005°04'612.2
2017-Apr-26 11:29N 49°55' W 005°14'612.5
2017-Apr-26 10:59N 49°55' W 005°23'13214.5
2017-Apr-26 01:53N 52°06' W 005°51'719.8
2017-Apr-26 01:30N 52°13' W 005°49'11117.7
2017-Apr-25 19:14N 54°03' W 005°24'417.3
2017-Apr-25 19:00N 54°07' W 005°23'917.9
2017-Apr-25 18:30N 54°16' W 005°21'918.5
2017-Apr-25 18:00N 54°25' W 005°20'919.0
2017-Apr-25 17:30N 54°34' W 005°23'918.8
2017-Apr-25 17:00N 54°43' W 005°31'815.7
2017-Apr-25 16:30N 54°42' W 005°44'611.5
2017-Apr-25 16:00N 54°38' W 005°52'1 0.1
2017-Apr-25 11:20N 54°38' W 005°53'0 0.0
2017-Apr-25 10:56N 54°38' W 005°53'0 0.0
2017-Apr-25 00:22N 54°38' W 005°53'0 0.0
2017-Apr-24 05:22N 54°38' W 005°53'0 0.0
2017-Apr-24 02:25N 54°38' W 005°53'0 0.0
2017-Apr-24 00:34N 54°38' W 005°53'0 0.0
2017-Apr-24 00:10N 54°38' W 005°53'0 0.0
2017-Apr-23 23:40N 54°38' W 005°53'0 0.0
2017-Apr-23 23:15N 54°38' W 005°53'0 0.4
2017-Apr-23 23:00N 54°38' W 005°53'3 6.7
2017-Apr-23 22:30N 54°41' W 005°49'612.2
2017-Apr-23 22:00N 54°43' W 005°40'713.9
2017-Apr-23 21:31N 54°41' W 005°28'917.2
2017-Apr-23 21:01N 54°33' W 005°22'816.8
2017-Apr-23 20:30N 54°25' W 005°20'816.7
2017-Apr-23 20:00N 54°17' W 005°20'917.1
2017-Apr-23 19:30N 54°08' W 005°21'917.4
2017-Apr-23 19:00N 53°60' W 005°23'7418.3
2017-Apr-23 14:58N 52°46' W 005°36'3316.6
2017-Apr-23 12:58N 52°13' W 005°42'715.5
2017-Apr-23 12:30N 52°06' W 005°43'3715.3
2017-Apr-23 10:07N 51°30' W 005°52'916.3
2017-Apr-23 09:34N 51°21' W 005°52'116.8
2017-Apr-23 09:30N 51°20' W 005°53'816.7
2017-Apr-23 09:00N 51°11' W 005°53'816.7
2017-Apr-23 08:30N 51°03' W 005°54'816.8
2017-Apr-23 08:00N 50°55' W 005°54'816.5
2017-Apr-23 07:30N 50°47' W 005°54'816.3
2017-Apr-23 07:00N 50°38' W 005°53'816.3
2017-Apr-23 06:30N 50°30' W 005°53'816.2
2017-Apr-23 06:00N 50°22' W 005°53'816.0
2017-Apr-23 05:30N 50°14' W 005°53'815.8
2017-Apr-23 05:00N 50°06' W 005°53'1712.9
2017-Apr-23 03:43N 49°57' W 005°31'416.4
2017-Apr-23 03:29N 49°57' W 005°25'914.0
2017-Apr-23 02:53N 49°55' W 005°12'614.8
2017-Apr-23 02:28N 49°56' W 005°03'816.8
2017-Apr-23 02:00N 49°58' W 004°51'816.9
2017-Apr-23 01:30N 49°59' W 004°38'817.1
2017-Apr-23 01:01N 50°01' W 004°25'917.2
2017-Apr-23 00:30N 50°02' W 004°11'917.5
2017-Apr-23 00:00N 50°03' W 003°58'917.9
2017-Apr-22 23:30N 50°05' W 003°45'918.3
2017-Apr-22 23:00N 50°07' W 003°31'918.3
2017-Apr-22 22:30N 50°09' W 003°17'918.2
2017-Apr-22 22:00N 50°10' W 003°03'918.0
2017-Apr-22 21:30N 50°12' W 002°49'918.0
2017-Apr-22 21:00N 50°14' W 002°35'917.7
2017-Apr-22 20:30N 50°15' W 002°21'41 7.1
2017-Apr-22 14:48N 50°23' W 001°19'515.9
2017-Apr-22 14:30N 50°23' W 001°11'1816.9
2017-Apr-22 13:27N 50°27' W 000°44'918.1
2017-Apr-22 12:59N 50°28' W 000°31'918.0
2017-Apr-22 12:30N 50°30' W 000°18'918.1
2017-Apr-22 12:01N 50°31' W 000°04'918.4
2017-Apr-22 11:30N 50°34' E 000°10'918.3
2017-Apr-22 11:00N 50°37' E 000°24'917.8
2017-Apr-22 10:30N 50°40' E 000°37'917.6
2017-Apr-22 10:00N 50°45' E 000°48'917.0
2017-Apr-22 09:30N 50°50' E 000°60'916.6
2017-Apr-22 08:57N 50°56' E 001°10'715.9
2017-Apr-22 08:30N 51°00' E 001°19'815.9
2017-Apr-22 08:00N 51°05' E 001°30'816.3
2017-Apr-22 07:30N 51°10' E 001°39'816.2
2017-Apr-22 07:00N 51°16' E 001°48'917.1
2017-Apr-22 06:31N 51°23' E 001°55'917.7
2017-Apr-22 06:01N 51°31' E 002°03'917.9
2017-Apr-22 05:30N 51°37' E 002°13'1118.0
2017-Apr-22 04:54N 51°46' E 002°24'3516.4
2017-Apr-22 02:46N 52°03' E 003°13'517.5
2017-Apr-22 02:30N 52°03' E 003°21'816.5
2017-Apr-22 02:00N 52°03' E 003°34'816.7
2017-Apr-22 01:30N 52°03' E 003°48'611.4
2017-Apr-22 01:00N 52°01' E 003°57'714.1
2017-Apr-22 00:30N 51°59' E 004°07'612.0
2017-Apr-22 00:00N 51°55' E 004°15'4 8.7
2017-Apr-21 23:30N 51°54' E 004°22'3 5.0
2017-Apr-21 23:00N 51°53' E 004°25'0 0.0
2017-Apr-21 22:30N 51°53' E 004°25'0 0.0
2017-Apr-21 22:00N 51°53' E 004°25'0 0.0
2017-Apr-21 21:30N 51°53' E 004°25'0 0.0
2017-Apr-21 20:30N 51°53' E 004°25'0 0.0
2017-Apr-21 20:00N 51°53' E 004°25'0 0.0
2017-Apr-21 19:30N 51°53' E 004°25'0 0.0
2017-Apr-21 19:00N 51°53' E 004°25'0 0.0
2017-Apr-21 18:30N 51°53' E 004°25'0 0.0
2017-Apr-21 18:00N 51°53' E 004°25'0 0.0
2017-Apr-21 17:30N 51°53' E 004°25'0 0.0
2017-Apr-21 17:00N 51°53' E 004°25'0 0.0
2017-Apr-21 16:30N 51°53' E 004°25'0 0.0
2017-Apr-21 16:00N 51°53' E 004°25'0 0.0
2017-Apr-21 15:30N 51°53' E 004°25'0 0.0
2017-Apr-21 15:00N 51°53' E 004°25'0 0.0
2017-Apr-21 14:30N 51°53' E 004°25'0 0.0
2017-Apr-21 13:30N 51°53' E 004°25'0 0.0
2017-Apr-21 13:00N 51°53' E 004°25'0 0.0
2017-Apr-21 12:30N 51°53' E 004°25'0 0.0
2017-Apr-21 12:00N 51°53' E 004°25'0 0.0
2017-Apr-21 11:30N 51°53' E 004°25'0 0.0
2017-Apr-21 11:00N 51°53' E 004°25'0 0.0
2017-Apr-21 10:30N 51°53' E 004°25'0 0.0
2017-Apr-21 10:00N 51°53' E 004°25'0 0.0
2017-Apr-21 09:30N 51°53' E 004°25'0 0.0
2017-Apr-21 09:00N 51°53' E 004°25'0 0.0
2017-Apr-21 08:30N 51°53' E 004°25'0 0.0
2017-Apr-21 08:00N 51°53' E 004°25'0 0.0
2017-Apr-21 07:27N 51°53' E 004°25'0 0.0
2017-Apr-21 07:00N 51°53' E 004°25'0 0.0
2017-Apr-21 06:30N 51°53' E 004°25'0 0.0
2017-Apr-21 06:00N 51°53' E 004°25'0 0.0
2017-Apr-21 05:30N 51°53' E 004°25'0 0.0
2017-Apr-21 04:59N 51°53' E 004°25'0 0.0
2017-Apr-21 04:29N 51°53' E 004°25'0 0.0
2017-Apr-21 03:59N 51°53' E 004°25'0 0.0
2017-Apr-21 03:29N 51°53' E 004°25'0 0.0
2017-Apr-21 02:59N 51°53' E 004°25'0 0.0
2017-Apr-21 02:29N 51°53' E 004°25'0 0.8
2017-Apr-21 02:01N 51°53' E 004°25'3 5.2
2017-Apr-21 01:30N 51°54' E 004°21'5 9.4
2017-Apr-21 01:00N 51°56' E 004°13'611.2
2017-Apr-21 00:30N 51°59' E 004°06'3 6.0
2017-Apr-21 00:00N 51°58' E 004°01'1 2.9
2017-Apr-20 23:30N 51°57' E 004°00'0 0.0
2017-Apr-20 23:00N 51°57' E 004°00'0 0.0
2017-Apr-20 22:30N 51°57' E 004°00'0 0.0
2017-Apr-20 22:00N 51°57' E 004°00'0 0.0
2017-Apr-20 21:30N 51°57' E 004°00'0 0.0
2017-Apr-20 21:00N 51°57' E 004°00'0 0.0
2017-Apr-20 20:30N 51°57' E 004°00'0 0.0
2017-Apr-20 20:00N 51°57' E 004°00'0 0.0
2017-Apr-20 19:12N 51°57' E 004°00'0 0.0
2017-Apr-20 19:00N 51°57' E 004°00'0 0.0
2017-Apr-20 18:30N 51°57' E 004°00'0 0.0
2017-Apr-20 18:00N 51°57' E 004°00'0 0.0
2017-Apr-20 17:30N 51°57' E 004°00'0 0.0
2017-Apr-20 16:57N 51°57' E 004°00'0 0.0
2017-Apr-20 16:30N 51°57' E 004°00'0 0.0
2017-Apr-20 15:57N 51°57' E 004°00'0 0.0
2017-Apr-20 15:29N 51°57' E 004°00'0 0.0
2017-Apr-20 14:58N 51°57' E 004°00'0 0.0
2017-Apr-20 13:59N 51°57' E 004°00'0 0.0
2017-Apr-20 13:29N 51°57' E 004°00'0 0.1
2017-Apr-20 13:00N 51°57' E 004°00'2 4.6
2017-Apr-20 12:30N 51°58' E 004°04'0 0.5
2017-Apr-20 11:58N 51°58' E 004°03'0 0.0
2017-Apr-20 11:28N 51°58' E 004°03'0 0.0
2017-Apr-20 10:56N 51°58' E 004°03'0 0.0
2017-Apr-20 10:28N 51°58' E 004°03'0 0.0
2017-Apr-20 09:58N 51°58' E 004°03'0 0.0
2017-Apr-20 09:28N 51°58' E 004°03'0 0.0
2017-Apr-20 08:58N 51°58' E 004°03'0 0.0
2017-Apr-20 08:29N 51°58' E 004°03'0 0.0
2017-Apr-20 07:59N 51°58' E 004°03'0 0.0
2017-Apr-20 07:28N 51°58' E 004°03'0 0.0
2017-Apr-20 06:59N 51°58' E 004°03'0 0.0
2017-Apr-20 06:28N 51°58' E 004°03'0 0.0
2017-Apr-20 05:58N 51°58' E 004°03'0 0.0
2017-Apr-20 05:29N 51°58' E 004°03'0 0.0
2017-Apr-20 04:58N 51°58' E 004°03'0 0.0
2017-Apr-20 04:30N 51°58' E 004°03'0 0.0
2017-Apr-20 04:00N 51°58' E 004°03'0 0.0
2017-Apr-20 03:30N 51°58' E 004°03'0 0.0
2017-Apr-20 03:00N 51°58' E 004°03'0 0.0
2017-Apr-20 02:30N 51°58' E 004°03'0 0.0
2017-Apr-20 02:00N 51°58' E 004°03'0 0.0
2017-Apr-20 01:30N 51°58' E 004°03'0 0.0
2017-Apr-20 01:00N 51°58' E 004°03'0 0.7
2017-Apr-20 00:30N 51°58' E 004°03'0 0.0
2017-Apr-20 00:00N 51°57' E 004°03'0 0.0
2017-Apr-19 23:30N 51°57' E 004°03'0 0.0
2017-Apr-19 23:00N 51°57' E 004°03'0 0.0
2017-Apr-19 22:30N 51°57' E 004°03'0 0.0
2017-Apr-19 22:00N 51°57' E 004°03'0 0.0
2017-Apr-19 21:30N 51°57' E 004°03'0 0.0
2017-Apr-19 21:00N 51°57' E 004°03'0 0.7
2017-Apr-19 20:29N 51°58' E 004°03'0 0.0
2017-Apr-19 19:59N 51°58' E 004°03'0 0.0
2017-Apr-19 19:29N 51°58' E 004°03'0 0.0
2017-Apr-19 18:59N 51°58' E 004°03'0 0.0
2017-Apr-19 18:29N 51°58' E 004°03'0 0.0
2017-Apr-19 17:59N 51°58' E 004°03'0 0.0
2017-Apr-19 17:29N 51°58' E 004°03'0 0.0
2017-Apr-19 16:59N 51°58' E 004°03'0 0.0
2017-Apr-19 16:29N 51°58' E 004°03'0 0.0
2017-Apr-19 16:00N 51°58' E 004°03'1 1.6
2017-Apr-19 15:30N 51°58' E 004°02'0 0.0
2017-Apr-19 15:00N 51°58' E 004°02'0 0.0
2017-Apr-19 14:30N 51°58' E 004°02'0 0.1
2017-Apr-19 13:30N 51°58' E 004°03'2 3.4
2017-Apr-19 13:00N 51°57' E 004°04'1 1.7
2017-Apr-19 12:30N 51°57' E 004°03'0 0.0
2017-Apr-19 11:59N 51°57' E 004°03'0 0.0
2017-Apr-19 11:29N 51°57' E 004°03'0 0.0
2017-Apr-19 10:59N 51°57' E 004°03'0 0.0
2017-Apr-19 10:29N 51°57' E 004°03'0 0.0
2017-Apr-19 09:59N 51°57' E 004°03'0 0.0
2017-Apr-19 09:29N 51°57' E 004°03'0 0.0
2017-Apr-19 08:59N 51°57' E 004°03'0 0.0
2017-Apr-19 08:29N 51°57' E 004°03'0 0.0
2017-Apr-19 07:56N 51°57' E 004°03'0 0.0
2017-Apr-19 07:29N 51°57' E 004°03'0 0.0
2017-Apr-19 06:59N 51°57' E 004°03'0 0.0
2017-Apr-19 06:29N 51°57' E 004°03'0 0.0
2017-Apr-19 05:59N 51°57' E 004°03'0 0.0
2017-Apr-19 05:26N 51°57' E 004°03'0 0.0
2017-Apr-19 04:59N 51°57' E 004°03'0 0.0
2017-Apr-19 04:29N 51°57' E 004°03'0 0.0
2017-Apr-19 03:59N 51°57' E 004°03'0 0.0
2017-Apr-19 03:29N 51°57' E 004°03'0 0.0
2017-Apr-19 02:59N 51°57' E 004°03'0 0.0
2017-Apr-19 02:29N 51°57' E 004°03'0 0.0
2017-Apr-19 01:59N 51°57' E 004°03'0 0.1
2017-Apr-19 01:31N 51°57' E 004°03'2 4.3
2017-Apr-19 01:00N 51°59' E 004°05'611.7
2017-Apr-19 00:30N 51°56' E 004°13'611.6
2017-Apr-19 00:00N 51°54' E 004°22'2 4.7
2017-Apr-18 23:30N 51°53' E 004°25'0 0.0
2017-Apr-18 23:00N 51°53' E 004°25'0 0.0
2017-Apr-18 22:30N 51°53' E 004°25'0 0.0
2017-Apr-18 22:00N 51°53' E 004°25'0 0.0
2017-Apr-18 21:30N 51°53' E 004°25'0 0.0
2017-Apr-18 21:00N 51°53' E 004°25'0 0.0
2017-Apr-18 20:30N 51°53' E 004°25'0 0.0
2017-Apr-18 20:00N 51°53' E 004°25'0 0.0
2017-Apr-18 19:30N 51°53' E 004°25'0 0.0
2017-Apr-18 19:00N 51°53' E 004°25'0 0.0
2017-Apr-18 18:30N 51°53' E 004°25'0 0.0
2017-Apr-18 18:00N 51°53' E 004°25'0 0.0
2017-Apr-18 17:30N 51°53' E 004°25'0 0.0
2017-Apr-18 17:00N 51°53' E 004°25'0 0.0
2017-Apr-18 16:30N 51°53' E 004°25'0 0.0
2017-Apr-18 16:00N 51°53' E 004°25'0 0.0
2017-Apr-18 15:30N 51°53' E 004°25'0 0.0
2017-Apr-18 14:59N 51°53' E 004°25'0 0.0
2017-Apr-18 14:29N 51°53' E 004°25'0 0.0
2017-Apr-18 13:29N 51°53' E 004°25'0 0.0
2017-Apr-18 12:59N 51°53' E 004°25'0 0.0
2017-Apr-18 12:29N 51°53' E 004°25'0 0.0
2017-Apr-18 11:59N 51°53' E 004°25'0 0.0
2017-Apr-18 11:29N 51°53' E 004°25'0 0.0
2017-Apr-18 10:59N 51°53' E 004°25'0 0.0
2017-Apr-18 10:29N 51°53' E 004°25'0 0.0
2017-Apr-18 09:59N 51°53' E 004°25'0 0.0
2017-Apr-18 09:30N 51°53' E 004°25'0 0.9
2017-Apr-18 09:00N 51°53' E 004°25'4 7.8
2017-Apr-18 08:30N 51°54' E 004°18'612.4
2017-Apr-18 08:00N 51°57' E 004°10'612.8
2017-Apr-18 07:31N 51°60' E 004°01'714.1
2017-Apr-18 07:00N 52°00' E 003°49'611.9
2017-Apr-18 06:30N 51°58' E 003°40'1411.3
2017-Apr-18 05:16N 51°54' E 003°19'411.4
2017-Apr-18 04:53N 51°52' E 003°12'411.4
2017-Apr-18 04:30N 51°51' E 003°05'1511.1
2017-Apr-18 03:10N 51°46' E 002°42'210.8
2017-Apr-18 02:59N 51°46' E 002°39'1110.2
2017-Apr-18 01:52N 51°37' E 002°27'412.3
2017-Apr-18 01:30N 51°34' E 002°22'611.9
2017-Apr-18 01:00N 51°30' E 002°16'611.5
2017-Apr-18 00:30N 51°25' E 002°10'611.1
2017-Apr-18 00:00N 51°20' E 002°08'510.7
2017-Apr-17 23:30N 51°15' E 002°05'611.3
2017-Apr-17 23:01N 51°12' E 001°58'611.4
2017-Apr-17 22:30N 51°09' E 001°50'611.1
2017-Apr-17 22:00N 51°05' E 001°43'510.9
2017-Apr-17 21:30N 51°02' E 001°37'510.1
2017-Apr-17 21:00N 50°58' E 001°32'4 8.9
2017-Apr-17 20:30N 50°54' E 001°27'59 8.7
2017-Apr-17 13:44N 50°21' E 000°10'210.7
2017-Apr-17 13:30N 50°21' E 000°06'510.9
2017-Apr-17 13:00N 50°20' W 000°02'611.2
2017-Apr-17 12:30N 50°19' W 000°11'611.5
2017-Apr-17 12:00N 50°18' W 000°20'4111.0
2017-Apr-17 08:15N 50°14' W 001°24'2 9.4
2017-Apr-17 07:59N 50°14' W 001°28'4 9.1
2017-Apr-17 07:30N 50°14' W 001°35'32 7.9
2017-Apr-17 03:23N 50°11' W 002°25'7 9.1
2017-Apr-17 02:34N 50°10' W 002°37'1 9.6
2017-Apr-17 02:25N 50°09' W 002°39'4 9.9
2017-Apr-17 02:00N 50°09' W 002°46'510.2
2017-Apr-17 01:30N 50°08' W 002°53'510.4
2017-Apr-17 01:00N 50°07' W 003°01'510.5
2017-Apr-17 00:30N 50°06' W 003°09'610.7
2017-Apr-16 23:59N 50°06' W 003°18'510.7
2017-Apr-16 23:30N 50°05' W 003°26'510.8
2017-Apr-16 23:00N 50°04' W 003°34'510.9
2017-Apr-16 22:30N 50°03' W 003°43'510.9
2017-Apr-16 22:00N 50°03' W 003°51'510.9
2017-Apr-16 21:30N 50°01' W 003°59'910.7
2017-Apr-16 20:38N 49°60' W 004°13'210.6
2017-Apr-16 20:29N 49°59' W 004°16'1110.6
2017-Apr-16 19:28N 49°58' W 004°33'510.6
2017-Apr-16 19:00N 49°57' W 004°40'510.6
2017-Apr-16 18:30N 49°57' W 004°48'  
Track history (hours):
 
Tides and Currents Weather Stations Pressure Air Temp Water Temp Dewpoint Dewpoint Depression Visibility Wind Speed Wind Dir Waves Ship Positions

Anne Sibum

Last reported at 2017-Apr-26 18:11 UTC. Time now 2017-Apr-26 21:28 UTC.
Position N 50°11' W 002°22'.

Length 151 m; draft 7.1 m.

Type: Ship (hazmat cat A). MMSI: 209322000.

Date/timePositionNaut miles runAvg speedWind from/ knotsBaromVisibWave heightAir tempDewpointWater temp
2017-Apr-26 18:11N 50°11' W 002°22'518.8
2017-Apr-26 17:56N 50°10' W 002°29'818.4
2017-Apr-26 17:30N 50°09' W 002°42'918.0
2017-Apr-26 17:00N 50°08' W 002°56'917.9
2017-Apr-26 16:30N 50°06' W 003°09'917.8
2017-Apr-26 16:01N 50°05' W 003°23'917.6
2017-Apr-26 15:31N 50°04' W 003°37'917.1
2017-Apr-26 15:01N 50°03' W 003°50'816.8
2017-Apr-26 14:31N 50°02' W 004°03'1916.4
2017-Apr-26 13:19N 49°59' W 004°33'515.9
2017-Apr-26 12:59N 49°58' W 004°41'815.7
2017-Apr-26 12:30N 49°57' W 004°52'715.0
2017-Apr-26 12:00N 49°56' W 005°04'612.2
2017-Apr-26 11:29N 49°55' W 005°14'612.5
2017-Apr-26 10:59N 49°55' W 005°23'13214.5
2017-Apr-26 01:53N 52°06' W 005°51'719.8
2017-Apr-26 01:30N 52°13' W 005°49'11117.7
2017-Apr-25 19:14N 54°03' W 005°24'417.3
2017-Apr-25 19:00N 54°07' W 005°23'917.9
2017-Apr-25 18:30N 54°16' W 005°21'918.5
2017-Apr-25 18:00N 54°25' W 005°20'919.0
2017-Apr-25 17:30N 54°34' W 005°23'918.8
2017-Apr-25 17:00N 54°43' W 005°31'815.7
2017-Apr-25 16:30N 54°42' W 005°44'611.5
2017-Apr-25 16:00N 54°38' W 005°52'1 0.1
2017-Apr-25 11:20N 54°38' W 005°53'0 0.0
2017-Apr-25 10:56N 54°38' W 005°53'0 0.0
2017-Apr-25 00:22N 54°38' W 005°53'0 0.0
2017-Apr-24 05:22N 54°38' W 005°53'0 0.0
2017-Apr-24 02:25N 54°38' W 005°53'0 0.0
2017-Apr-24 00:34N 54°38' W 005°53'0 0.0
2017-Apr-24 00:10N 54°38' W 005°53'0 0.0
2017-Apr-23 23:40N 54°38' W 005°53'0 0.0
2017-Apr-23 23:15N 54°38' W 005°53'0 0.4
2017-Apr-23 23:00N 54°38' W 005°53'3 6.7
2017-Apr-23 22:30N 54°41' W 005°49'612.2
2017-Apr-23 22:00N 54°43' W 005°40'713.9
2017-Apr-23 21:31N 54°41' W 005°28'917.2
2017-Apr-23 21:01N 54°33' W 005°22'816.8
2017-Apr-23 20:30N 54°25' W 005°20'816.7
2017-Apr-23 20:00N 54°17' W 005°20'917.1
2017-Apr-23 19:30N 54°08' W 005°21'917.4
2017-Apr-23 19:00N 53°60' W 005°23'7418.3
2017-Apr-23 14:58N 52°46' W 005°36'3316.6
2017-Apr-23 12:58N 52°13' W 005°42'715.5
2017-Apr-23 12:30N 52°06' W 005°43'3715.3
2017-Apr-23 10:07N 51°30' W 005°52'916.3
2017-Apr-23 09:34N 51°21' W 005°52'116.8
2017-Apr-23 09:30N 51°20' W 005°53'816.7
2017-Apr-23 09:00N 51°11' W 005°53'816.7
2017-Apr-23 08:30N 51°03' W 005°54'816.8
2017-Apr-23 08:00N 50°55' W 005°54'816.5
2017-Apr-23 07:30N 50°47' W 005°54'816.3
2017-Apr-23 07:00N 50°38' W 005°53'816.3
2017-Apr-23 06:30N 50°30' W 005°53'816.2
2017-Apr-23 06:00N 50°22' W 005°53'816.0
2017-Apr-23 05:30N 50°14' W 005°53'815.8
2017-Apr-23 05:00N 50°06' W 005°53'1712.9
2017-Apr-23 03:43N 49°57' W 005°31'416.4
2017-Apr-23 03:29N 49°57' W 005°25'914.0
2017-Apr-23 02:53N 49°55' W 005°12'614.8
2017-Apr-23 02:28N 49°56' W 005°03'816.8
2017-Apr-23 02:00N 49°58' W 004°51'816.9
2017-Apr-23 01:30N 49°59' W 004°38'817.1
2017-Apr-23 01:01N 50°01' W 004°25'917.2
2017-Apr-23 00:30N 50°02' W 004°11'917.5
2017-Apr-23 00:00N 50°03' W 003°58'917.9
2017-Apr-22 23:30N 50°05' W 003°45'918.3
2017-Apr-22 23:00N 50°07' W 003°31'918.3
2017-Apr-22 22:30N 50°09' W 003°17'918.2
2017-Apr-22 22:00N 50°10' W 003°03'918.0
2017-Apr-22 21:30N 50°12' W 002°49'918.0
2017-Apr-22 21:00N 50°14' W 002°35'917.7
2017-Apr-22 20:30N 50°15' W 002°21'41 7.1
2017-Apr-22 14:48N 50°23' W 001°19'515.9
2017-Apr-22 14:30N 50°23' W 001°11'1816.9
2017-Apr-22 13:27N 50°27' W 000°44'918.1
2017-Apr-22 12:59N 50°28' W 000°31'918.0
2017-Apr-22 12:30N 50°30' W 000°18'918.1
2017-Apr-22 12:01N 50°31' W 000°04'918.4
2017-Apr-22 11:30N 50°34' E 000°10'918.3
2017-Apr-22 11:00N 50°37' E 000°24'917.8
2017-Apr-22 10:30N 50°40' E 000°37'917.6
2017-Apr-22 10:00N 50°45' E 000°48'917.0
2017-Apr-22 09:30N 50°50' E 000°60'916.6
2017-Apr-22 08:57N 50°56' E 001°10'715.9
2017-Apr-22 08:30N 51°00' E 001°19'815.9
2017-Apr-22 08:00N 51°05' E 001°30'816.3
2017-Apr-22 07:30N 51°10' E 001°39'816.2
2017-Apr-22 07:00N 51°16' E 001°48'917.1
2017-Apr-22 06:31N 51°23' E 001°55'917.7
2017-Apr-22 06:01N 51°31' E 002°03'917.9
2017-Apr-22 05:30N 51°37' E 002°13'1118.0
2017-Apr-22 04:54N 51°46' E 002°24'3516.4
2017-Apr-22 02:46N 52°03' E 003°13'517.5
2017-Apr-22 02:30N 52°03' E 003°21'816.5
2017-Apr-22 02:00N 52°03' E 003°34'816.7
2017-Apr-22 01:30N 52°03' E 003°48'611.4
2017-Apr-22 01:00N 52°01' E 003°57'714.1
2017-Apr-22 00:30N 51°59' E 004°07'612.0
2017-Apr-22 00:00N 51°55' E 004°15'4 8.7
2017-Apr-21 23:30N 51°54' E 004°22'3 5.0
2017-Apr-21 23:00N 51°53' E 004°25'0 0.0
2017-Apr-21 22:30N 51°53' E 004°25'0 0.0
2017-Apr-21 22:00N 51°53' E 004°25'0 0.0
2017-Apr-21 21:30N 51°53' E 004°25'0 0.0
2017-Apr-21 20:30N 51°53' E 004°25'0 0.0
2017-Apr-21 20:00N 51°53' E 004°25'0 0.0
2017-Apr-21 19:30N 51°53' E 004°25'0 0.0
2017-Apr-21 19:00N 51°53' E 004°25'0 0.0
2017-Apr-21 18:30N 51°53' E 004°25'0 0.0
2017-Apr-21 18:00N 51°53' E 004°25'0 0.0
2017-Apr-21 17:30N 51°53' E 004°25'0 0.0
2017-Apr-21 17:00N 51°53' E 004°25'0 0.0
2017-Apr-21 16:30N 51°53' E 004°25'0 0.0
2017-Apr-21 16:00N 51°53' E 004°25'0 0.0
2017-Apr-21 15:30N 51°53' E 004°25'0 0.0
2017-Apr-21 15:00N 51°53' E 004°25'0 0.0
2017-Apr-21 14:30N 51°53' E 004°25'0 0.0
2017-Apr-21 13:30N 51°53' E 004°25'0 0.0
2017-Apr-21 13:00N 51°53' E 004°25'0 0.0
2017-Apr-21 12:30N 51°53' E 004°25'0 0.0
2017-Apr-21 12:00N 51°53' E 004°25'0 0.0
2017-Apr-21 11:30N 51°53' E 004°25'0 0.0
2017-Apr-21 11:00N 51°53' E 004°25'0 0.0
2017-Apr-21 10:30N 51°53' E 004°25'0 0.0
2017-Apr-21 10:00N 51°53' E 004°25'0 0.0
2017-Apr-21 09:30N 51°53' E 004°25'0 0.0
2017-Apr-21 09:00N 51°53' E 004°25'0 0.0
2017-Apr-21 08:30N 51°53' E 004°25'0 0.0
2017-Apr-21 08:00N 51°53' E 004°25'0 0.0
2017-Apr-21 07:27N 51°53' E 004°25'0 0.0
2017-Apr-21 07:00N 51°53' E 004°25'0 0.0
2017-Apr-21 06:30N 51°53' E 004°25'0 0.0
2017-Apr-21 06:00N 51°53' E 004°25'0 0.0
2017-Apr-21 05:30N 51°53' E 004°25'0 0.0
2017-Apr-21 04:59N 51°53' E 004°25'0 0.0
2017-Apr-21 04:29N 51°53' E 004°25'0 0.0
2017-Apr-21 03:59N 51°53' E 004°25'0 0.0
2017-Apr-21 03:29N 51°53' E 004°25'0 0.0
2017-Apr-21 02:59N 51°53' E 004°25'0 0.0
2017-Apr-21 02:29N 51°53' E 004°25'0 0.8
2017-Apr-21 02:01N 51°53' E 004°25'3 5.2
2017-Apr-21 01:30N 51°54' E 004°21'5 9.4
2017-Apr-21 01:00N 51°56' E 004°13'611.2
2017-Apr-21 00:30N 51°59' E 004°06'3 6.0
2017-Apr-21 00:00N 51°58' E 004°01'1 2.9
2017-Apr-20 23:30N 51°57' E 004°00'0 0.0
2017-Apr-20 23:00N 51°57' E 004°00'0 0.0
2017-Apr-20 22:30N 51°57' E 004°00'0 0.0
2017-Apr-20 22:00N 51°57' E 004°00'0 0.0
2017-Apr-20 21:30N 51°57' E 004°00'0 0.0
2017-Apr-20 21:00N 51°57' E 004°00'0 0.0
2017-Apr-20 20:30N 51°57' E 004°00'0 0.0
2017-Apr-20 20:00N 51°57' E 004°00'0 0.0
2017-Apr-20 19:12N 51°57' E 004°00'0 0.0
2017-Apr-20 19:00N 51°57' E 004°00'0 0.0
2017-Apr-20 18:30N 51°57' E 004°00'0 0.0
2017-Apr-20 18:00N 51°57' E 004°00'0 0.0
2017-Apr-20 17:30N 51°57' E 004°00'0 0.0
2017-Apr-20 16:57N 51°57' E 004°00'0 0.0
2017-Apr-20 16:30N 51°57' E 004°00'0 0.0
2017-Apr-20 15:57N 51°57' E 004°00'0 0.0
2017-Apr-20 15:29N 51°57' E 004°00'0 0.0
2017-Apr-20 14:58N 51°57' E 004°00'0 0.0
2017-Apr-20 13:59N 51°57' E 004°00'0 0.0
2017-Apr-20 13:29N 51°57' E 004°00'0 0.1
2017-Apr-20 13:00N 51°57' E 004°00'2 4.6
2017-Apr-20 12:30N 51°58' E 004°04'0 0.5
2017-Apr-20 11:58N 51°58' E 004°03'0 0.0
2017-Apr-20 11:28N 51°58' E 004°03'0 0.0
2017-Apr-20 10:56N 51°58' E 004°03'0 0.0
2017-Apr-20 10:28N 51°58' E 004°03'0 0.0
2017-Apr-20 09:58N 51°58' E 004°03'0 0.0
2017-Apr-20 09:28N 51°58' E 004°03'0 0.0
2017-Apr-20 08:58N 51°58' E 004°03'0 0.0
2017-Apr-20 08:29N 51°58' E 004°03'0 0.0
2017-Apr-20 07:59N 51°58' E 004°03'0 0.0
2017-Apr-20 07:28N 51°58' E 004°03'0 0.0
2017-Apr-20 06:59N 51°58' E 004°03'0 0.0
2017-Apr-20 06:28N 51°58' E 004°03'0 0.0
2017-Apr-20 05:58N 51°58' E 004°03'0 0.0
2017-Apr-20 05:29N 51°58' E 004°03'0 0.0
2017-Apr-20 04:58N 51°58' E 004°03'0 0.0
2017-Apr-20 04:30N 51°58' E 004°03'0 0.0
2017-Apr-20 04:00N 51°58' E 004°03'0 0.0
2017-Apr-20 03:30N 51°58' E 004°03'0 0.0
2017-Apr-20 03:00N 51°58' E 004°03'0 0.0
2017-Apr-20 02:30N 51°58' E 004°03'0 0.0
2017-Apr-20 02:00N 51°58' E 004°03'0 0.0
2017-Apr-20 01:30N 51°58' E 004°03'0 0.0
2017-Apr-20 01:00N 51°58' E 004°03'0 0.7
2017-Apr-20 00:30N 51°58' E 004°03'0 0.0
2017-Apr-20 00:00N 51°57' E 004°03'0 0.0
2017-Apr-19 23:30N 51°57' E 004°03'0 0.0
2017-Apr-19 23:00N 51°57' E 004°03'0 0.0
2017-Apr-19 22:30N 51°57' E 004°03'0 0.0
2017-Apr-19 22:00N 51°57' E 004°03'0 0.0
2017-Apr-19 21:30N 51°57' E 004°03'0 0.0
2017-Apr-19 21:00N 51°57' E 004°03'0 0.7
2017-Apr-19 20:29N 51°58' E 004°03'0 0.0
2017-Apr-19 19:59N 51°58' E 004°03'0 0.0
2017-Apr-19 19:29N 51°58' E 004°03'0 0.0
2017-Apr-19 18:59N 51°58' E 004°03'0 0.0
2017-Apr-19 18:29N 51°58' E 004°03'0 0.0
2017-Apr-19 17:59N 51°58' E 004°03'0 0.0
2017-Apr-19 17:29N 51°58' E 004°03'0 0.0
2017-Apr-19 16:59N 51°58' E 004°03'0 0.0
2017-Apr-19 16:29N 51°58' E 004°03'0 0.0
2017-Apr-19 16:00N 51°58' E 004°03'1 1.6
2017-Apr-19 15:30N 51°58' E 004°02'0 0.0
2017-Apr-19 15:00N 51°58' E 004°02'0 0.0
2017-Apr-19 14:30N 51°58' E 004°02'0 0.1
2017-Apr-19 13:30N 51°58' E 004°03'2 3.4
2017-Apr-19 13:00N 51°57' E 004°04'1 1.7
2017-Apr-19 12:30N 51°57' E 004°03'0 0.0
2017-Apr-19 11:59N 51°57' E 004°03'0 0.0
2017-Apr-19 11:29N 51°57' E 004°03'0 0.0
2017-Apr-19 10:59N 51°57' E 004°03'0 0.0
2017-Apr-19 10:29N 51°57' E 004°03'0 0.0
2017-Apr-19 09:59N 51°57' E 004°03'0 0.0
2017-Apr-19 09:29N 51°57' E 004°03'0 0.0
2017-Apr-19 08:59N 51°57' E 004°03'0 0.0
2017-Apr-19 08:29N 51°57' E 004°03'0 0.0
2017-Apr-19 07:56N 51°57' E 004°03'0 0.0
2017-Apr-19 07:29N 51°57' E 004°03'0 0.0
2017-Apr-19 06:59N 51°57' E 004°03'0 0.0
2017-Apr-19 06:29N 51°57' E 004°03'0 0.0
2017-Apr-19 05:59N 51°57' E 004°03'0 0.0
2017-Apr-19 05:26N 51°57' E 004°03'0 0.0
2017-Apr-19 04:59N 51°57' E 004°03'0 0.0
2017-Apr-19 04:29N 51°57' E 004°03'0 0.0
2017-Apr-19 03:59N 51°57' E 004°03'0 0.0
2017-Apr-19 03:29N 51°57' E 004°03'0 0.0
2017-Apr-19 02:59N 51°57' E 004°03'0 0.0
2017-Apr-19 02:29N 51°57' E 004°03'0 0.0
2017-Apr-19 01:59N 51°57' E 004°03'0 0.1
2017-Apr-19 01:31N 51°57' E 004°03'2 4.3
2017-Apr-19 01:00N 51°59' E 004°05'611.7
2017-Apr-19 00:30N 51°56' E 004°13'611.6
2017-Apr-19 00:00N 51°54' E 004°22'2 4.7
2017-Apr-18 23:30N 51°53' E 004°25'0 0.0
2017-Apr-18 23:00N 51°53' E 004°25'0 0.0
2017-Apr-18 22:30N 51°53' E 004°25'0 0.0
2017-Apr-18 22:00N 51°53' E 004°25'0 0.0
2017-Apr-18 21:30N 51°53' E 004°25'0 0.0
2017-Apr-18 21:00N 51°53' E 004°25'0 0.0
2017-Apr-18 20:30N 51°53' E 004°25'0 0.0
2017-Apr-18 20:00N 51°53' E 004°25'0 0.0
2017-Apr-18 19:30N 51°53' E 004°25'0 0.0
2017-Apr-18 19:00N 51°53' E 004°25'0 0.0
2017-Apr-18 18:30N 51°53' E 004°25'0 0.0
2017-Apr-18 18:00N 51°53' E 004°25'0 0.0
2017-Apr-18 17:30N 51°53' E 004°25'0 0.0
2017-Apr-18 17:00N 51°53' E 004°25'0 0.0
2017-Apr-18 16:30N 51°53' E 004°25'0 0.0
2017-Apr-18 16:00N 51°53' E 004°25'0 0.0
2017-Apr-18 15:30N 51°53' E 004°25'0 0.0
2017-Apr-18 14:59N 51°53' E 004°25'0 0.0
2017-Apr-18 14:29N 51°53' E 004°25'0 0.0
2017-Apr-18 13:29N 51°53' E 004°25'0 0.0
2017-Apr-18 12:59N 51°53' E 004°25'0 0.0
2017-Apr-18 12:29N 51°53' E 004°25'0 0.0
2017-Apr-18 11:59N 51°53' E 004°25'0 0.0
2017-Apr-18 11:29N 51°53' E 004°25'0 0.0
2017-Apr-18 10:59N 51°53' E 004°25'0 0.0
2017-Apr-18 10:29N 51°53' E 004°25'0 0.0
2017-Apr-18 09:59N 51°53' E 004°25'0 0.0
2017-Apr-18 09:30N 51°53' E 004°25'0 0.9
2017-Apr-18 09:00N 51°53' E 004°25'4 7.8
2017-Apr-18 08:30N 51°54' E 004°18'612.4
2017-Apr-18 08:00N 51°57' E 004°10'612.8
2017-Apr-18 07:31N 51°60' E 004°01'714.1
2017-Apr-18 07:00N 52°00' E 003°49'611.9
2017-Apr-18 06:30N 51°58' E 003°40'1411.3
2017-Apr-18 05:16N 51°54' E 003°19'411.4
2017-Apr-18 04:53N 51°52' E 003°12'411.4
2017-Apr-18 04:30N 51°51' E 003°05'1511.1
2017-Apr-18 03:10N 51°46' E 002°42'210.8
2017-Apr-18 02:59N 51°46' E 002°39'1110.2
2017-Apr-18 01:52N 51°37' E 002°27'412.3
2017-Apr-18 01:30N 51°34' E 002°22'611.9
2017-Apr-18 01:00N 51°30' E 002°16'611.5
2017-Apr-18 00:30N 51°25' E 002°10'611.1
2017-Apr-18 00:00N 51°20' E 002°08'510.7
2017-Apr-17 23:30N 51°15' E 002°05'611.3
2017-Apr-17 23:01N 51°12' E 001°58'611.4
2017-Apr-17 22:30N 51°09' E 001°50'611.1
2017-Apr-17 22:00N 51°05' E 001°43'510.9
2017-Apr-17 21:30N 51°02' E 001°37'510.1
2017-Apr-17 21:00N 50°58' E 001°32'4 8.9
2017-Apr-17 20:30N 50°54' E 001°27'59 8.7
2017-Apr-17 13:44N 50°21' E 000°10'210.7
2017-Apr-17 13:30N 50°21' E 000°06'510.9
2017-Apr-17 13:00N 50°20' W 000°02'611.2
2017-Apr-17 12:30N 50°19' W 000°11'611.5
2017-Apr-17 12:00N 50°18' W 000°20'4111.0
2017-Apr-17 08:15N 50°14' W 001°24'2 9.4
2017-Apr-17 07:59N 50°14' W 001°28'4 9.1
2017-Apr-17 07:30N 50°14' W 001°35'32 7.9
2017-Apr-17 03:23N 50°11' W 002°25'7 9.1
2017-Apr-17 02:34N 50°10' W 002°37'1 9.6
2017-Apr-17 02:25N 50°09' W 002°39'4 9.9
2017-Apr-17 02:00N 50°09' W 002°46'510.2
2017-Apr-17 01:30N 50°08' W 002°53'510.4
2017-Apr-17 01:00N 50°07' W 003°01'510.5
2017-Apr-17 00:30N 50°06' W 003°09'610.7
2017-Apr-16 23:59N 50°06' W 003°18'510.7
2017-Apr-16 23:30N 50°05' W 003°26'510.8
2017-Apr-16 23:00N 50°04' W 003°34'510.9
2017-Apr-16 22:30N 50°03' W 003°43'510.9
2017-Apr-16 22:00N 50°03' W 003°51'510.9
2017-Apr-16 21:30N 50°01' W 003°59'910.7
2017-Apr-16 20:38N 49°60' W 004°13'210.6
2017-Apr-16 20:29N 49°59' W 004°16'1110.6
2017-Apr-16 19:28N 49°58' W 004°33'510.6
2017-Apr-16 19:00N 49°57' W 004°40'510.6
2017-Apr-16 18:30N 49°57' W 004°48'  

Dump ship's entire track history